Fort Saskatchewan, Canada
Current Conditions -  °F | °C
As of 7:00 AM on Friday 19 Dec 2014 (Local Time) from CYED Reporting Station
Clear Clear  
Wind Chill:   Ceiling: Unl
Heat Index:   Visibility: 4mi
Dew Point:   Wind: 0mph
Humidity: 85%   Direction: NA
Pressure: 29.71"   Gusts: NA
Location:  53.71°N, 113.21°W
Report Text: CYED 191400Z AUTO 00000KT 4SM CLR M14/M16 A2971 RMK SLP113
Loading
Personal Weather Stations






























Interactive Weather Map New forecast layout! Learn more

10-Day Weather Forecast

Advertisements
Track Severe Weather on mobile